Flight Track Log - Related Links

Times and Time Zones

All times are in EDT time to prevent confusion due to time zone crossing. See the SKW6345 flight status page for this flight to view local times or setup timezone preferences in your user account.

Time Position Orientation Groundspeed Altitude Reporting Facility
EDT Latitude Longitude Course Direction KTS MPH feet Rate Location/Type
Wed 07:29:58 PM 33.9500 -118.4500 270° West 135 155 1,400  Level Southern California TRACON
Wed 07:30:58 PM 33.9500 -118.5000 270° West 189 217 2,500 1,200 Climbing Southern California TRACON
Wed 07:31:58 PM 33.9667 -118.5667 287° West 195 224 3,800 1,350 Climbing Southern California TRACON
Wed 07:32:58 PM 34.0000 -118.6167 309° West 203 234 5,200 1,282 Climbing Southern California TRACON
Wed 07:34:09 PM 34.0561 -118.6350 345° North 203 234 6,600 1,083 Climbing Los Angeles Center
Wed 07:35:11 PM 34.1114 -118.6431 353° North 208 239 7,600 960 Climbing Los Angeles Center
Wed 07:36:14 PM 34.1689 -118.6511 353° North 208 239 8,600 1,152 Climbing Los Angeles Center
Wed 07:37:16 PM 34.2392 -118.6650 351° North 211 243 10,000 1,306 Climbing Los Angeles Center
Wed 07:38:18 PM 34.2972 -118.6889 341° North 219 252 11,300 919 Climbing Los Angeles Center
Wed 07:39:20 PM 34.3544 -118.7086 344° North 216 249 11,900 581 Climbing Los Angeles Center
Wed 07:40:22 PM 34.4164 -118.7256 347° North 226 260 12,500 677 Climbing Los Angeles Center
Wed 07:41:24 PM 34.4769 -118.7394 349° North 222 255 13,300 726 Climbing Los Angeles Center
Wed 07:42:26 PM 34.5392 -118.7506 352° North 224 258 14,000 823 Climbing Los Angeles Center
Wed 07:43:28 PM 34.6167 -118.7678 350° North 233 268 15,000 968 Climbing Los Angeles Center
Wed 07:44:30 PM 34.6825 -118.7811 351° North 239 275 16,000 871 Climbing Los Angeles Center
Wed 07:45:32 PM 34.7489 -118.7922 352° North 242 278 16,800 774 Climbing Los Angeles Center
Wed 07:46:34 PM 34.8144 -118.8067 350° North 241 277 17,600 774 Climbing Los Angeles Center
Wed 07:47:36 PM 34.8803 -118.8189 351° North 239 275 18,400 677 Climbing Los Angeles Center
Wed 07:48:38 PM 34.9481 -118.8322 351° North 242 278 19,000 290 Climbing Los Angeles Center
Wed 07:49:40 PM 35.0189 -118.8461 351° North 253 291 19,000  Level Los Angeles Center
Wed 07:50:42 PM 35.1064 -118.8639 351° North 262 302 19,000  Level Los Angeles Center
Wed 07:51:44 PM 35.1800 -118.8781 351° North 264 304 19,000  Level Los Angeles Center
Wed 07:52:46 PM 35.2547 -118.8933 351° North 270 311 19,000  Level Los Angeles Center
Wed 07:53:48 PM 35.3297 -118.9072 351° North 272 313 19,000  Level Los Angeles Center
Wed 07:54:50 PM 35.4036 -118.9219 351° North 271 312 19,000  Level Los Angeles Center
Wed 07:55:52 PM 35.4942 -118.9400 351° North 273 314 19,000  Level Los Angeles Center
Wed 07:56:54 PM 35.5697 -118.9550 351° North 274 315 19,000 -240 Level Los Angeles Center
Wed 07:57:57 PM 35.6453 -118.9714 350° North 275 316 18,500 -816 Descending Los Angeles Center
Wed 07:58:59 PM 35.7283 -118.9861 352° North 296 341 17,300 -1,008 Descending Los Angeles Center
Wed 08:00:02 PM 35.8136 -119.0036 351° North 307 353 16,400 -912 Descending Los Angeles Center
Wed 08:01:04 PM 35.9142 -119.0247 350° North 307 353 15,400 -912 Descending Los Angeles Center
Wed 08:02:07 PM 35.9914 -119.0594 340° North 300 345 14,500 -672 Descending Los Angeles Center
Wed 08:03:09 PM 36.0683 -119.0981 338° Northwest 300 345 14,000 -242 Descending Los Angeles Center
Wed 08:04:11 PM 36.1419 -119.1333 339° North 293 337 14,000 -145 Level Los Angeles Center
Wed 08:05:13 PM 36.2106 -119.1664 339° North 276 318 13,700 -774 Descending Los Angeles Center
Wed 08:06:15 PM 36.2972 -119.2067 339° North 276 318 12,400 -1,065 Descending Los Angeles Center
Wed 08:07:17 PM 36.3731 -119.2422 339° North 281 323 11,500 -871 Descending Los Angeles Center
Wed 08:08:19 PM 36.4492 -119.2792 339° North 287 330 10,600 -864 Descending Los Angeles Center
Wed 08:09:22 PM 36.5269 -119.3169 339° North 292 336 9,700 -912 Descending Los Angeles Center
Wed 08:10:24 PM 36.5819 -119.3811 317° Northwest 288 331 8,700 -1,161 Descending Los Angeles Center
Wed 08:11:26 PM 36.6353 -119.4667 308° West 275 316 7,300 -1,469 Descending Los Angeles Center
Wed 08:12:51 PM 36.6753 -119.5386 305° West 173 199 5,100 -1,755 Descending Oakland Center
Wed 08:13:53 PM 36.7017 -119.5861 305° West 170 196 3,000 -1,512 Descending Oakland Center
Wed 08:14:54 PM 36.7242 -119.6261 305° West 146 168 2,000 -878 Descending Oakland Center
Wed 08:15:56 PM 36.7467 -119.6650 306° West 135 155 1,200 -683 Descending Oakland Center
Wed 08:16:57 PM 36.7650 -119.6969 306° West 121 139 600 -590 Descending Oakland Center

Login

Don't have an account? Register now (free) for customized features, flight alerts, and more!